CheckWX is a tool to help pilots better visualize weather data.  It is not intended as a substitute for an official pre-flight weather briefing.

13:45:51 UTC

PAFR METAR
Bryant AAF Airport
Fort Richardson(Anchorage), Alaska, USA
Current

48 mins ago

PAFR 251258Z AUTO 00000KT 10SM OVC090 05/02 A2984 RMK AO2 SLP111 T00470017 $
Observed
Aug-25 @ 12:58 UTC
Visibility
10 SM
Flight Rules
VFR
Cloud Levels
  • Overcast at 9,000' AGL
Temperature
C / 41°F
Dewpoint
C / 36°F
Humidity
81%
Altimeter
29.84" Hg
Pressure
1010.52 hPa
Previous

2 hours ago

PAFR 251158Z AUTO 03003KT 10SM CLR 05/02 A2984 RMK AO2 SLP111 T00500024 10109 20035 52010 $
Observed
Aug-25 @ 11:58 UTC
Wind
  • 030° at 3 KTS
Visibility
10 SM
Flight Rules
VFR
Cloud Levels
  • Clear skies
Temperature
C / 41°F
Dewpoint
C / 36°F
Humidity
81%
Altimeter
29.84" Hg
Pressure
1010.52 hPa
Previous

3 hours ago

PAFR 251058Z AUTO 00000KT 10SM CLR 05/02 A2983 RMK AO2 SLP108 T00450016 $
Observed
Aug-25 @ 10:58 UTC
Visibility
10 SM
Flight Rules
VFR
Cloud Levels
  • Clear skies
Temperature
C / 41°F
Dewpoint
C / 36°F
Humidity
81%
Altimeter
29.83" Hg
Pressure
1010.12 hPa